sensor_id;sensor_type;location;lat;lon;timestamp;pressure;altitude;pressure_sealevel;temperature;humidity
20971;BME280;10644;48.834;10.088;2023-02-03T00:00:53;97813.97;;;7.35;74.24
20971;BME280;10644;48.834;10.088;2023-02-03T00:03:23;97803.94;;;7.29;74.31
20971;BME280;10644;48.834;10.088;2023-02-03T00:06:09;97815.97;;;7.21;74.82
20971;BME280;10644;48.834;10.088;2023-02-03T00:08:38;97811.97;;;7.11;74.99
20971;BME280;10644;48.834;10.088;2023-02-03T00:11:13;97813.53;;;7.17;74.75
20971;BME280;10644;48.834;10.088;2023-02-03T00:13:39;97802.03;;;7.37;74.24
20971;BME280;10644;48.834;10.088;2023-02-03T00:16:05;97812.00;;;7.46;73.87
20971;BME280;10644;48.834;10.088;2023-02-03T00:18:44;97803.19;;;7.59;73.43
20971;BME280;10644;48.834;10.088;2023-02-03T00:21:09;97812.91;;;7.44;73.52
20971;BME280;10644;48.834;10.088;2023-02-03T00:23:35;97806.81;;;7.49;73.58
20971;BME280;10644;48.834;10.088;2023-02-03T00:26:19;97810.66;;;7.32;73.58
20971;BME280;10644;48.834;10.088;2023-02-03T00:28:58;97824.97;;;7.36;73.64
20971;BME280;10644;48.834;10.088;2023-02-03T00:31:25;97813.53;;;7.18;73.85
20971;BME280;10644;48.834;10.088;2023-02-03T00:33:55;97821.84;;;7.25;73.81
20971;BME280;10644;48.834;10.088;2023-02-03T00:36:34;97823.25;;;7.38;73.50
20971;BME280;10644;48.834;10.088;2023-02-03T00:39:00;97830.97;;;7.33;73.03
20971;BME280;10644;48.834;10.088;2023-02-03T00:41:30;97838.56;;;7.36;72.99
20971;BME280;10644;48.834;10.088;2023-02-03T00:44:03;97836.75;;;7.43;72.92
20971;BME280;10644;48.834;10.088;2023-02-03T00:46:28;97837.56;;;7.43;72.80
20971;BME280;10644;48.834;10.088;2023-02-03T00:49:03;97842.78;;;7.37;72.44
20971;BME280;10644;48.834;10.088;2023-02-03T00:51:43;97833.22;;;7.47;72.64
20971;BME280;10644;48.834;10.088;2023-02-03T00:54:18;97825.09;;;7.31;72.55
20971;BME280;10644;48.834;10.088;2023-02-03T00:56:48;97837.84;;;7.31;72.91
20971;BME280;10644;48.834;10.088;2023-02-03T00:59:35;97843.34;;;7.51;72.54
20971;BME280;10644;48.834;10.088;2023-02-03T01:02:15;97824.75;;;7.46;72.49
20971;BME280;10644;48.834;10.088;2023-02-03T01:04:42;97831.75;;;7.37;72.75
20971;BME280;10644;48.834;10.088;2023-02-03T01:07:09;97831.06;;;7.30;73.07
20971;BME280;10644;48.834;10.088;2023-02-03T01:09:38;97837.09;;;7.26;73.05
20971;BME280;10644;48.834;10.088;2023-02-03T01:12:16;97820.94;;;7.27;73.11
20971;BME280;10644;48.834;10.088;2023-02-03T01:14:54;97825.69;;;7.42;72.68
20971;BME280;10644;48.834;10.088;2023-02-03T01:17:23;97821.63;;;7.35;72.96
20971;BME280;10644;48.834;10.088;2023-02-03T01:19:49;97814.16;;;7.26;72.99
20971;BME280;10644;48.834;10.088;2023-02-03T01:22:37;97802.16;;;7.31;73.16
20971;BME280;10644;48.834;10.088;2023-02-03T01:25:05;97797.28;;;7.22;72.79
20971;BME280;10644;48.834;10.088;2023-02-03T01:27:32;97798.81;;;7.29;72.81
20971;BME280;10644;48.834;10.088;2023-02-03T01:30:00;97798.69;;;7.35;72.25
20971;BME280;10644;48.834;10.088;2023-02-03T01:32:35;97796.78;;;7.43;72.42
20971;BME280;10644;48.834;10.088;2023-02-03T01:35:03;97793.16;;;7.53;71.56
20971;BME280;10644;48.834;10.088;2023-02-03T01:37:39;97803.13;;;7.62;71.45
20971;BME280;10644;48.834;10.088;2023-02-03T01:40:05;97791.84;;;7.37;71.63
20971;BME280;10644;48.834;10.088;2023-02-03T01:42:40;97782.53;;;7.35;72.31
20971;BME280;10644;48.834;10.088;2023-02-03T01:45:07;97794.19;;;7.45;71.52
20971;BME280;10644;48.834;10.088;2023-02-03T01:47:59;97792.50;;;7.45;72.19
20971;BME280;10644;48.834;10.088;2023-02-03T01:50:51;97790.78;;;7.46;72.19
20971;BME280;10644;48.834;10.088;2023-02-03T01:53:30;97782.81;;;7.59;71.97
20971;BME280;10644;48.834;10.088;2023-02-03T01:55:57;97772.81;;;7.50;71.76
20971;BME280;10644;48.834;10.088;2023-02-03T01:58:30;97770.78;;;7.64;71.27
20971;BME280;10644;48.834;10.088;2023-02-03T02:01:02;97770.47;;;7.43;71.51
20971;BME280;10644;48.834;10.088;2023-02-03T02:03:59;97774.50;;;7.51;71.51
20971;BME280;10644;48.834;10.088;2023-02-03T02:06:36;97781.59;;;7.40;72.39
20971;BME280;10644;48.834;10.088;2023-02-03T02:09:01;97766.94;;;7.48;72.27
20971;BME280;10644;48.834;10.088;2023-02-03T02:11:40;97767.06;;;7.44;72.07
20971;BME280;10644;48.834;10.088;2023-02-03T02:14:08;97754.13;;;7.51;71.83
20971;BME280;10644;48.834;10.088;2023-02-03T02:16:57;97742.53;;;7.38;72.22
20971;BME280;10644;48.834;10.088;2023-02-03T02:22:50;97739.31;;;7.65;71.19
20971;BME280;10644;48.834;10.088;2023-02-03T02:34:17;97732.84;;;7.52;71.35
20971;BME280;10644;48.834;10.088;2023-02-03T02:37:14;97722.81;;;7.78;71.08
20971;BME280;10644;48.834;10.088;2023-02-03T02:45:53;97678.69;;;7.76;70.44
20971;BME280;10644;48.834;10.088;2023-02-03T02:51:29;97686.88;;;7.55;71.05
20971;BME280;10644;48.834;10.088;2023-02-03T02:54:07;97712.66;;;7.45;71.55
20971;BME280;10644;48.834;10.088;2023-02-03T02:56:55;97730.53;;;7.43;71.89
20971;BME280;10644;48.834;10.088;2023-02-03T02:59:22;97735.63;;;7.43;71.60
20971;BME280;10644;48.834;10.088;2023-02-03T03:02:11;97736.97;;;7.56;72.03
20971;BME280;10644;48.834;10.088;2023-02-03T03:04:58;97735.16;;;7.61;71.81
20971;BME280;10644;48.834;10.088;2023-02-03T03:07:57;97736.31;;;7.50;71.71
20971;BME280;10644;48.834;10.088;2023-02-03T03:10:27;97727.47;;;7.63;71.39
20971;BME280;10644;48.834;10.088;2023-02-03T03:13:01;97736.06;;;7.59;71.58
20971;BME280;10644;48.834;10.088;2023-02-03T03:15:30;97725.84;;;7.60;71.66
20971;BME280;10644;48.834;10.088;2023-02-03T03:18:33;97729.72;;;7.73;71.17
20971;BME280;10644;48.834;10.088;2023-02-03T03:21:05;97729.84;;;7.70;71.28
20971;BME280;10644;48.834;10.088;2023-02-03T03:23:56;97732.09;;;7.81;71.59
20971;BME280;10644;48.834;10.088;2023-02-03T03:29:54;97714.84;;;7.58;71.24
20971;BME280;10644;48.834;10.088;2023-02-03T03:32:34;97718.19;;;7.60;71.47
20971;BME280;10644;48.834;10.088;2023-02-03T03:35:11;97739.44;;;7.61;71.23
20971;BME280;10644;48.834;10.088;2023-02-03T03:38:07;97733.41;;;7.63;71.61
20971;BME280;10644;48.834;10.088;2023-02-03T03:43:42;97743.31;;;7.75;71.00
20971;BME280;10644;48.834;10.088;2023-02-03T03:46:13;97733.41;;;7.63;71.40
20971;BME280;10644;48.834;10.088;2023-02-03T03:48:59;97742.91;;;7.58;71.59
20971;BME280;10644;48.834;10.088;2023-02-03T03:51:53;97756.78;;;7.80;71.39
20971;BME280;10644;48.834;10.088;2023-02-03T03:54:22;97764.25;;;7.86;71.19
20971;BME280;10644;48.834;10.088;2023-02-03T03:57:05;97754.84;;;7.88;71.27
20971;BME280;10644;48.834;10.088;2023-02-03T03:59:41;97767.47;;;7.93;70.76
20971;BME280;10644;48.834;10.088;2023-02-03T04:02:12;97787.13;;;7.89;70.66
20971;BME280;10644;48.834;10.088;2023-02-03T04:04:41;97780.19;;;7.94;70.58
20971;BME280;10644;48.834;10.088;2023-02-03T04:07:13;97788.28;;;7.78;71.13
20971;BME280;10644;48.834;10.088;2023-02-03T04:09:40;97790.06;;;7.74;71.36
20971;BME280;10644;48.834;10.088;2023-02-03T04:12:27;97782.91;;;7.88;71.48
20971;BME280;10644;48.834;10.088;2023-02-03T04:14:54;97768.47;;;7.87;71.07
20971;BME280;10644;48.834;10.088;2023-02-03T04:20:44;97741.69;;;7.71;71.35
20971;BME280;10644;48.834;10.088;2023-02-03T04:23:14;97747.81;;;7.66;71.77
20971;BME280;10644;48.834;10.088;2023-02-03T04:25:47;97726.28;;;7.44;72.14
20971;BME280;10644;48.834;10.088;2023-02-03T04:28:18;97716.66;;;7.55;72.25
20971;BME280;10644;48.834;10.088;2023-02-03T04:30:51;97737.38;;;7.73;71.95
20971;BME280;10644;48.834;10.088;2023-02-03T04:33:43;97745.44;;;7.58;72.08
20971;BME280;10644;48.834;10.088;2023-02-03T04:36:27;97738.75;;;7.54;72.02
20971;BME280;10644;48.834;10.088;2023-02-03T04:38:54;97728.88;;;7.41;72.45
20971;BME280;10644;48.834;10.088;2023-02-03T04:41:37;97731.50;;;7.71;72.16
20971;BME280;10644;48.834;10.088;2023-02-03T04:44:03;97738.59;;;7.60;71.87
20971;BME280;10644;48.834;10.088;2023-02-03T04:46:33;97742.53;;;7.72;72.09
20971;BME280;10644;48.834;10.088;2023-02-03T04:49:04;97737.38;;;7.73;71.71
20971;BME280;10644;48.834;10.088;2023-02-03T04:51:36;97729.28;;;7.91;71.24
20971;BME280;10644;48.834;10.088;2023-02-03T04:54:06;97733.56;;;7.89;70.87
20971;BME280;10644;48.834;10.088;2023-02-03T04:56:33;97734.78;;;7.76;71.27
20971;BME280;10644;48.834;10.088;2023-02-03T04:59:01;97715.13;;;7.80;71.08
20971;BME280;10644;48.834;10.088;2023-02-03T05:01:33;97703.97;;;7.84;71.24
20971;BME280;10644;48.834;10.088;2023-02-03T05:04:05;97690.19;;;7.89;71.25
20971;BME280;10644;48.834;10.088;2023-02-03T05:06:32;97683.28;;;7.94;70.38
20971;BME280;10644;48.834;10.088;2023-02-03T05:09:17;97698.94;;;7.81;71.74
20971;BME280;10644;48.834;10.088;2023-02-03T05:11:52;97698.69;;;7.59;71.54
20971;BME280;10644;48.834;10.088;2023-02-03T05:14:19;97691.81;;;7.61;71.33
20971;BME280;10644;48.834;10.088;2023-02-03T05:16:58;97709.19;;;7.47;71.94
20971;BME280;10644;48.834;10.088;2023-02-03T05:19:29;97692.97;;;7.51;72.26
20971;BME280;10644;48.834;10.088;2023-02-03T05:22:01;97718.88;;;7.67;71.37
20971;BME280;10644;48.834;10.088;2023-02-03T05:24:26;97703.22;;;7.48;72.07
20971;BME280;10644;48.834;10.088;2023-02-03T05:26:56;97694.84;;;7.43;72.00
20971;BME280;10644;48.834;10.088;2023-02-03T05:29:40;97708.63;;;7.36;72.75
20971;BME280;10644;48.834;10.088;2023-02-03T05:32:09;97701.59;;;7.44;72.19
20971;BME280;10644;48.834;10.088;2023-02-03T05:34:58;97707.28;;;7.55;72.07
20971;BME280;10644;48.834;10.088;2023-02-03T05:37:29;97713.81;;;7.65;71.19
20971;BME280;10644;48.834;10.088;2023-02-03T05:40:02;97724.50;;;7.46;72.31
20971;BME280;10644;48.834;10.088;2023-02-03T05:43:06;97727.03;;;7.47;72.54
20971;BME280;10644;48.834;10.088;2023-02-03T05:46:05;97742.47;;;7.41;73.12
20971;BME280;10644;48.834;10.088;2023-02-03T05:48:32;97737.69;;;7.29;73.54
20971;BME280;10644;48.834;10.088;2023-02-03T05:50:58;97717.88;;;7.40;73.23
20971;BME280;10644;48.834;10.088;2023-02-03T05:53:24;97720.91;;;7.54;73.17
20971;BME280;10644;48.834;10.088;2023-02-03T05:55:58;97713.72;;;7.36;72.77
20971;BME280;10644;48.834;10.088;2023-02-03T05:58:32;97710.50;;;7.28;73.66
20971;BME280;10644;48.834;10.088;2023-02-03T06:00:58;97718.97;;;7.30;73.32
20971;BME280;10644;48.834;10.088;2023-02-03T06:03:37;97717.88;;;7.40;73.70
20971;BME280;10644;48.834;10.088;2023-02-03T06:06:06;97730.88;;;7.28;73.28
20971;BME280;10644;48.834;10.088;2023-02-03T06:08:37;97722.69;;;7.17;74.20
20971;BME280;10644;48.834;10.088;2023-02-03T06:11:17;97737.88;;;7.20;74.17
20971;BME280;10644;48.834;10.088;2023-02-03T06:13:51;97744.59;;;7.24;74.06
20971;BME280;10644;48.834;10.088;2023-02-03T06:16:16;97750.84;;;7.46;73.31
20971;BME280;10644;48.834;10.088;2023-02-03T06:18:43;97768.03;;;7.38;73.59
20971;BME280;10644;48.834;10.088;2023-02-03T06:21:30;97782.22;;;7.48;73.75
20971;BME280;10644;48.834;10.088;2023-02-03T06:24:05;97769.00;;;7.33;73.90
20971;BME280;10644;48.834;10.088;2023-02-03T06:26:46;97779.84;;;7.41;74.07
20971;BME280;10644;48.834;10.088;2023-02-03T06:29:17;97771.16;;;7.49;73.63
20971;BME280;10644;48.834;10.088;2023-02-03T06:31:43;97766.34;;;7.37;73.72
20971;BME280;10644;48.834;10.088;2023-02-03T06:34:16;97744.31;;;7.35;73.80
20971;BME280;10644;48.834;10.088;2023-02-03T06:36:42;97727.34;;;7.35;74.03
20971;BME280;10644;48.834;10.088;2023-02-03T06:39:16;97728.84;;;7.42;73.99
20971;BME280;10644;48.834;10.088;2023-02-03T06:41:43;97710.28;;;7.37;74.13
20971;BME280;10644;48.834;10.088;2023-02-03T06:44:10;97712.69;;;7.43;73.75
20971;BME280;10644;48.834;10.088;2023-02-03T06:46:37;97705.88;;;7.44;73.74
20971;BME280;10644;48.834;10.088;2023-02-03T06:49:10;97716.84;;;7.47;74.00
20971;BME280;10644;48.834;10.088;2023-02-03T06:51:58;97705.28;;;7.66;73.54
20971;BME280;10644;48.834;10.088;2023-02-03T06:54:23;97702.72;;;7.66;73.00
20971;BME280;10644;48.834;10.088;2023-02-03T06:57:01;97704.66;;;7.58;73.12
20971;BME280;10644;48.834;10.088;2023-02-03T06:59:31;97686.16;;;7.50;74.27
20971;BME280;10644;48.834;10.088;2023-02-03T07:01:57;97679.88;;;7.31;74.00
20971;BME280;10644;48.834;10.088;2023-02-03T07:04:25;97677.28;;;7.33;74.26
20971;BME280;10644;48.834;10.088;2023-02-03T07:06:56;97686.06;;;7.55;73.51
20971;BME280;10644;48.834;10.088;2023-02-03T07:09:22;97670.28;;;7.41;73.76
20971;BME280;10644;48.834;10.088;2023-02-03T07:11:59;97668.66;;;7.37;73.28
20971;BME280;10644;48.834;10.088;2023-02-03T07:14:30;97683.69;;;7.49;73.50
20971;BME280;10644;48.834;10.088;2023-02-03T07:16:55;97685.81;;;7.32;73.70
20971;BME280;10644;48.834;10.088;2023-02-03T07:19:42;97665.09;;;7.45;73.82
20971;BME280;10644;48.834;10.088;2023-02-03T07:22:11;97671.56;;;7.57;73.09
20971;BME280;10644;48.834;10.088;2023-02-03T07:24:36;97677.34;;;7.63;72.68
20971;BME280;10644;48.834;10.088;2023-02-03T07:27:02;97675.06;;;7.53;72.56
20971;BME280;10644;48.834;10.088;2023-02-03T07:29:27;97674.47;;;7.43;73.27
20971;BME280;10644;48.834;10.088;2023-02-03T07:31:53;97669.13;;;7.52;72.89
20971;BME280;10644;48.834;10.088;2023-02-03T07:34:18;97686.69;;;7.63;73.34
20971;BME280;10644;48.834;10.088;2023-02-03T07:36:48;97695.63;;;7.77;72.65
20971;BME280;10644;48.834;10.088;2023-02-03T07:39:14;97703.94;;;7.85;72.48
20971;BME280;10644;48.834;10.088;2023-02-03T07:41:41;97699.31;;;7.98;71.79
20971;BME280;10644;48.834;10.088;2023-02-03T07:44:11;97705.09;;;8.04;70.50
20971;BME280;10644;48.834;10.088;2023-02-03T07:46:37;97724.25;;;7.88;71.09
20971;BME280;10644;48.834;10.088;2023-02-03T07:49:11;97724.19;;;7.91;70.89
20971;BME280;10644;48.834;10.088;2023-02-03T07:51:39;97727.84;;;7.81;71.23
20971;BME280;10644;48.834;10.088;2023-02-03T07:54:05;97735.47;;;7.83;71.90
20971;BME280;10644;48.834;10.088;2023-02-03T07:56:34;97730.94;;;7.92;71.11
20971;BME280;10644;48.834;10.088;2023-02-03T07:59:15;97725.84;;;7.92;70.92
20971;BME280;10644;48.834;10.088;2023-02-03T08:01:41;97739.56;;;7.87;70.95
20971;BME280;10644;48.834;10.088;2023-02-03T08:04:08;97741.16;;;7.59;71.61
20971;BME280;10644;48.834;10.088;2023-02-03T08:06:55;97730.91;;;7.62;72.48
20971;BME280;10644;48.834;10.088;2023-02-03T08:09:20;97726.00;;;7.54;72.00
20971;BME280;10644;48.834;10.088;2023-02-03T08:11:46;97725.13;;;7.55;72.49
20971;BME280;10644;48.834;10.088;2023-02-03T08:14:12;97729.91;;;7.67;73.03
20971;BME280;10644;48.834;10.088;2023-02-03T08:16:37;97738.25;;;7.72;71.71
20971;BME280;10644;48.834;10.088;2023-02-03T08:19:05;97733.47;;;7.60;72.32
20971;BME280;10644;48.834;10.088;2023-02-03T08:21:30;97736.84;;;7.62;71.85
20971;BME280;10644;48.834;10.088;2023-02-03T08:23:56;97733.31;;;7.66;73.20
20971;BME280;10644;48.834;10.088;2023-02-03T08:26:27;97725.13;;;7.87;71.87
20971;BME280;10644;48.834;10.088;2023-02-03T08:28:52;97726.00;;;7.86;71.71
20971;BME280;10644;48.834;10.088;2023-02-03T08:31:32;97739.66;;;7.85;71.50
20971;BME280;10644;48.834;10.088;2023-02-03T08:34:22;97738.19;;;7.75;72.31
20971;BME280;10644;48.834;10.088;2023-02-03T08:36:49;97737.47;;;7.70;72.26
20971;BME280;10644;48.834;10.088;2023-02-03T08:39:16;97731.81;;;7.59;72.86
20971;BME280;10644;48.834;10.088;2023-02-03T08:41:43;97744.00;;;7.48;73.16
20971;BME280;10644;48.834;10.088;2023-02-03T08:44:09;97742.50;;;7.40;74.00
20971;BME280;10644;48.834;10.088;2023-02-03T08:46:34;97740.97;;;7.34;73.79
20971;BME280;10644;48.834;10.088;2023-02-03T08:49:00;97743.28;;;7.42;73.90
20971;BME280;10644;48.834;10.088;2023-02-03T08:51:29;97726.50;;;7.35;73.91
20971;BME280;10644;48.834;10.088;2023-02-03T08:53:56;97720.31;;;7.43;73.43
20971;BME280;10644;48.834;10.088;2023-02-03T08:56:23;97708.63;;;7.36;74.10
20971;BME280;10644;48.834;10.088;2023-02-03T08:59:14;97716.69;;;7.53;73.61
20971;BME280;10644;48.834;10.088;2023-02-03T09:01:48;97711.34;;;7.62;73.41
20971;BME280;10644;48.834;10.088;2023-02-03T09:04:21;97735.22;;;7.60;73.57
20971;BME280;10644;48.834;10.088;2023-02-03T09:10:14;97734.00;;;7.39;74.47
20971;BME280;10644;48.834;10.088;2023-02-03T09:12:42;97722.16;;;7.38;73.89
20971;BME280;10644;48.834;10.088;2023-02-03T09:15:10;97735.28;;;7.23;75.05
20971;BME280;10644;48.834;10.088;2023-02-03T09:17:39;97734.75;;;7.09;75.17
20971;BME280;10644;48.834;10.088;2023-02-03T09:20:11;97735.50;;;7.14;76.19
20971;BME280;10644;48.834;10.088;2023-02-03T09:22:50;97732.78;;;7.20;75.50
20971;BME280;10644;48.834;10.088;2023-02-03T09:25:23;97731.63;;;7.33;75.36
20971;BME280;10644;48.834;10.088;2023-02-03T09:27:50;97727.41;;;7.32;75.19
20971;BME280;10644;48.834;10.088;2023-02-03T09:30:16;97751.81;;;7.41;75.31
20971;BME280;10644;48.834;10.088;2023-02-03T09:32:43;97745.50;;;7.55;75.93
20971;BME280;10644;48.834;10.088;2023-02-03T09:35:13;97741.38;;;7.51;74.82
20971;BME280;10644;48.834;10.088;2023-02-03T09:37:43;97731.34;;;7.45;75.09
20971;BME280;10644;48.834;10.088;2023-02-03T09:40:32;97746.22;;;7.60;75.11
20971;BME280;10644;48.834;10.088;2023-02-03T09:43:12;97735.97;;;7.63;74.84
20971;BME280;10644;48.834;10.088;2023-02-03T09:46:10;97739.75;;;7.49;75.24
20971;BME280;10644;48.834;10.088;2023-02-03T09:48:43;97740.19;;;7.64;74.45
20971;BME280;10644;48.834;10.088;2023-02-03T09:51:18;97734.22;;;7.65;74.67
20971;BME280;10644;48.834;10.088;2023-02-03T09:54:14;97726.25;;;7.45;74.94
20971;BME280;10644;48.834;10.088;2023-02-03T09:56:42;97729.00;;;7.36;75.64
20971;BME280;10644;48.834;10.088;2023-02-03T09:59:14;97731.34;;;7.45;75.72
20971;BME280;10644;48.834;10.088;2023-02-03T10:01:48;97739.94;;;7.41;75.79
20971;BME280;10644;48.834;10.088;2023-02-03T10:10:35;97742.88;;;7.60;75.41
20971;BME280;10644;48.834;10.088;2023-02-03T10:19:44;97744.09;;;7.45;75.99
20971;BME280;10644;48.834;10.088;2023-02-03T10:22:26;97748.78;;;7.60;75.25
20971;BME280;10644;48.834;10.088;2023-02-03T10:28:14;97756.38;;;7.63;75.61
20971;BME280;10644;48.834;10.088;2023-02-03T10:30:47;97749.31;;;7.73;74.71
20971;BME280;10644;48.834;10.088;2023-02-03T10:33:18;97759.78;;;7.62;75.27
20971;BME280;10644;48.834;10.088;2023-02-03T10:35:53;97751.16;;;7.66;75.24
20971;BME280;10644;48.834;10.088;2023-02-03T10:41:21;97738.53;;;7.63;75.87
20971;BME280;10644;48.834;10.088;2023-02-03T10:44:01;97726.56;;;7.65;75.28
20971;BME280;10644;48.834;10.088;2023-02-03T10:46:40;97734.38;;;7.59;76.02
20971;BME280;10644;48.834;10.088;2023-02-03T10:49:21;97741.81;;;7.67;75.46
20971;BME280;10644;48.834;10.088;2023-02-03T10:51:52;97744.03;;;7.80;75.13
20971;BME280;10644;48.834;10.088;2023-02-03T10:54:35;97746.56;;;7.80;75.13
20971;BME280;10644;48.834;10.088;2023-02-03T10:57:13;97755.53;;;7.95;74.49
20971;BME280;10644;48.834;10.088;2023-02-03T10:59:47;97747.06;;;7.93;74.07
20971;BME280;10644;48.834;10.088;2023-02-03T11:02:22;97740.88;;;8.01;74.46
20971;BME280;10644;48.834;10.088;2023-02-03T11:05:17;97725.94;;;8.20;73.77
20971;BME280;10644;48.834;10.088;2023-02-03T11:07:44;97711.31;;;8.26;73.23
20971;BME280;10644;48.834;10.088;2023-02-03T11:13:14;97707.59;;;8.07;73.65
20971;BME280;10644;48.834;10.088;2023-02-03T11:24:37;97676.75;;;7.84;74.76
20971;BME280;10644;48.834;10.088;2023-02-03T11:27:22;97682.50;;;7.92;74.55
20971;BME280;10644;48.834;10.088;2023-02-03T11:30:26;97686.78;;;7.90;74.71
20971;BME280;10644;48.834;10.088;2023-02-03T11:33:17;97697.28;;;8.10;75.06
20971;BME280;10644;48.834;10.088;2023-02-03T11:35:56;97679.59;;;8.04;73.75
20971;BME280;10644;48.834;10.088;2023-02-03T11:38:34;97689.97;;;7.98;74.22
20971;BME280;10644;48.834;10.088;2023-02-03T11:41:14;97681.72;;;8.19;73.24
20971;BME280;10644;48.834;10.088;2023-02-03T11:43:41;97670.16;;;8.06;73.80
20971;BME280;10644;48.834;10.088;2023-02-03T11:46:19;97670.69;;;8.17;73.83
20971;BME280;10644;48.834;10.088;2023-02-03T12:37:22;97563.31;;;8.26;73.29
20971;BME280;10644;48.834;10.088;2023-02-03T12:46:45;97533.41;;;8.02;74.62
20971;BME280;10644;48.834;10.088;2023-02-03T12:52:41;97533.25;;;8.34;73.74
20971;BME280;10644;48.834;10.088;2023-02-03T13:00:59;97549.03;;;8.19;73.17
20971;BME280;10644;48.834;10.088;2023-02-03T13:03:46;97552.38;;;8.23;72.82
20971;BME280;10644;48.834;10.088;2023-02-03T13:21:22;97537.25;;;8.15;74.04
20971;BME280;10644;48.834;10.088;2023-02-03T13:24:04;97521.16;;;8.13;73.42
20971;BME280;10644;48.834;10.088;2023-02-03T13:26:55;97546.56;;;8.16;73.65
20971;BME280;10644;48.834;10.088;2023-02-03T13:29:56;97529.97;;;8.03;74.25
20971;BME280;10644;48.834;10.088;2023-02-03T13:35:57;97526.47;;;8.07;74.60
20971;BME280;10644;48.834;10.088;2023-02-03T13:44:27;97509.66;;;8.00;75.06
20971;BME280;10644;48.834;10.088;2023-02-03T13:46:56;97496.13;;;7.98;75.00
20971;BME280;10644;48.834;10.088;2023-02-03T13:49:44;97491.09;;;7.95;75.25
20971;BME280;10644;48.834;10.088;2023-02-03T13:58:25;97516.41;;;8.01;75.49
20971;BME280;10644;48.834;10.088;2023-02-03T14:03:41;97518.53;;;8.15;76.02
20971;BME280;10644;48.834;10.088;2023-02-03T14:09:37;97540.22;;;8.02;76.62
20971;BME280;10644;48.834;10.088;2023-02-03T14:15:29;97528.84;;;7.84;76.85
20971;BME280;10644;48.834;10.088;2023-02-03T14:21:37;97518.91;;;7.77;77.87
20971;BME280;10644;48.834;10.088;2023-02-03T14:24:16;97516.03;;;7.58;78.20
20971;BME280;10644;48.834;10.088;2023-02-03T14:26:56;97512.25;;;7.71;78.14
20971;BME280;10644;48.834;10.088;2023-02-03T14:29:33;97530.31;;;7.64;78.02
20971;BME280;10644;48.834;10.088;2023-02-03T14:32:15;97509.84;;;7.67;78.25
20971;BME280;10644;48.834;10.088;2023-02-03T14:35:06;97508.88;;;7.71;78.19
20971;BME280;10644;48.834;10.088;2023-02-03T14:38:05;97495.97;;;7.75;78.40
20971;BME280;10644;48.834;10.088;2023-02-03T14:40:53;97519.28;;;7.63;78.41
20971;BME280;10644;48.834;10.088;2023-02-03T14:49:53;97515.13;;;7.61;78.69
20971;BME280;10644;48.834;10.088;2023-02-03T14:52:38;97517.94;;;7.50;79.18
20971;BME280;10644;48.834;10.088;2023-02-03T14:58:21;97531.84;;;7.40;80.29
20971;BME280;10644;48.834;10.088;2023-02-03T15:00:48;97524.63;;;7.54;79.98
20971;BME280;10644;48.834;10.088;2023-02-03T15:03:18;97523.53;;;7.63;79.93
20971;BME280;10644;48.834;10.088;2023-02-03T15:06:04;97515.34;;;7.53;79.57
20971;BME280;10644;48.834;10.088;2023-02-03T15:08:54;97516.97;;;7.56;80.50
20971;BME280;10644;48.834;10.088;2023-02-03T15:11:28;97524.06;;;7.74;79.46
20971;BME280;10644;48.834;10.088;2023-02-03T15:17:09;97526.22;;;7.58;79.23
20971;BME280;10644;48.834;10.088;2023-02-03T15:19:53;97528.22;;;7.78;78.75
20971;BME280;10644;48.834;10.088;2023-02-03T15:22:28;97520.59;;;7.76;78.34
20971;BME280;10644;48.834;10.088;2023-02-03T15:25:14;97537.47;;;7.80;77.71
20971;BME280;10644;48.834;10.088;2023-02-03T15:27:53;97533.19;;;7.81;77.74
20971;BME280;10644;48.834;10.088;2023-02-03T15:30:27;97535.91;;;7.76;78.09
20971;BME280;10644;48.834;10.088;2023-02-03T15:33:31;97547.78;;;7.76;77.83
20971;BME280;10644;48.834;10.088;2023-02-03T15:36:11;97540.72;;;7.85;77.67
20971;BME280;10644;48.834;10.088;2023-02-03T15:38:47;97540.81;;;7.82;77.54
20971;BME280;10644;48.834;10.088;2023-02-03T15:41:42;97533.16;;;7.82;77.54
20971;BME280;10644;48.834;10.088;2023-02-03T15:44:31;97532.19;;;7.86;77.91
20971;BME280;10644;48.834;10.088;2023-02-03T15:46:59;97518.09;;;7.75;77.67
20971;BME280;10644;48.834;10.088;2023-02-03T15:49:37;97525.28;;;7.62;78.24
20971;BME280;10644;48.834;10.088;2023-02-03T15:52:21;97523.28;;;7.72;78.59
20971;BME280;10644;48.834;10.088;2023-02-03T15:55:01;97520.53;;;7.79;77.97
20971;BME280;10644;48.834;10.088;2023-02-03T15:57:32;97518.09;;;7.75;78.40
20971;BME280;10644;48.834;10.088;2023-02-03T16:00:10;97505.13;;;7.82;78.71
20971;BME280;10644;48.834;10.088;2023-02-03T16:02:44;97522.88;;;7.85;79.25
20971;BME280;10644;48.834;10.088;2023-02-03T16:05:33;97546.28;;;7.98;78.57
20971;BME280;10644;48.834;10.088;2023-02-03T16:08:35;97520.78;;;7.98;77.64
20971;BME280;10644;48.834;10.088;2023-02-03T16:11:30;97532.84;;;7.93;78.01
20971;BME280;10644;48.834;10.088;2023-02-03T16:13:59;97536.66;;;7.78;78.76
20971;BME280;10644;48.834;10.088;2023-02-03T16:16:30;97548.63;;;7.76;78.72
20971;BME280;10644;48.834;10.088;2023-02-03T16:19:01;97530.84;;;7.75;79.23
20971;BME280;10644;48.834;10.088;2023-02-03T16:21:50;97521.03;;;7.61;80.11
20971;BME280;10644;48.834;10.088;2023-02-03T16:33:15;97545.38;;;7.42;81.31
20971;BME280;10644;48.834;10.088;2023-02-03T16:36:12;97540.97;;;7.49;81.47
20971;BME280;10644;48.834;10.088;2023-02-03T16:39:00;97556.19;;;7.50;81.82
20971;BME280;10644;48.834;10.088;2023-02-03T16:41:49;97540.78;;;7.55;82.05
20971;BME280;10644;48.834;10.088;2023-02-03T16:44:34;97517.63;;;7.62;80.90
20971;BME280;10644;48.834;10.088;2023-02-03T16:50:47;97552.44;;;7.63;81.02
20971;BME280;10644;48.834;10.088;2023-02-03T16:53:34;97547.84;;;7.74;80.57
20971;BME280;10644;48.834;10.088;2023-02-03T16:56:05;97550.94;;;7.85;80.18
20971;BME280;10644;48.834;10.088;2023-02-03T16:58:30;97549.94;;;7.89;79.75
20971;BME280;10644;48.834;10.088;2023-02-03T17:01:04;97562.47;;;7.97;79.64